createdAt,value
2023-06-29T00:00:58.585Z,15.74
2023-06-29T00:03:13.041Z,15.73
2023-06-29T00:05:07.237Z,15.73
2023-06-29T00:07:04.610Z,15.72
2023-06-29T00:08:57.813Z,15.72
2023-06-29T00:10:52.284Z,15.71
2023-06-29T00:12:45.347Z,15.71
2023-06-29T00:14:38.393Z,15.70
2023-06-29T00:16:32.475Z,15.68
2023-06-29T00:18:29.319Z,15.67
2023-06-29T00:20:29.906Z,15.66
2023-06-29T00:22:22.976Z,15.64
2023-06-29T00:24:16.273Z,15.62
2023-06-29T00:26:09.318Z,15.61
2023-06-29T00:28:03.159Z,15.61
2023-06-29T00:29:56.211Z,15.60
2023-06-29T00:31:49.575Z,15.59
2023-06-29T00:33:44.785Z,15.57
2023-06-29T00:35:38.119Z,15.56
2023-06-29T00:37:31.170Z,15.55
2023-06-29T00:39:24.217Z,15.54
2023-06-29T00:41:17.476Z,15.53
2023-06-29T00:43:12.272Z,15.52
2023-06-29T00:45:06.139Z,15.50
2023-06-29T00:46:59.981Z,15.50
2023-06-29T00:48:53.878Z,15.49
2023-06-29T00:50:47.236Z,15.48
2023-06-29T00:52:41.921Z,15.48
2023-06-29T00:54:35.014Z,15.46
2023-06-29T00:56:29.356Z,15.45
2023-06-29T00:58:22.408Z,15.44
2023-06-29T01:00:16.816Z,15.43
2023-06-29T01:02:10.554Z,15.41
2023-06-29T01:04:04.080Z,15.40
2023-06-29T01:06:05.720Z,15.38
2023-06-29T01:08:28.832Z,15.37
2023-06-29T01:10:25.869Z,15.34
2023-06-29T01:12:20.124Z,15.30
2023-06-29T01:14:16.819Z,15.29
2023-06-29T01:16:12.962Z,15.28
2023-06-29T01:18:08.595Z,15.25
2023-06-29T01:20:02.414Z,15.22
2023-06-29T01:22:04.061Z,15.21
2023-06-29T01:24:01.605Z,15.19
2023-06-29T01:25:56.698Z,15.16
2023-06-29T01:27:53.741Z,15.14
2023-06-29T01:29:46.893Z,15.12
2023-06-29T01:31:39.883Z,15.11
2023-06-29T01:33:34.452Z,15.09
2023-06-29T01:35:28.097Z,15.07
2023-06-29T01:37:26.152Z,15.06
2023-06-29T01:39:24.233Z,15.05
2023-06-29T01:41:19.102Z,15.03
2023-06-29T01:43:12.071Z,15.01
2023-06-29T01:45:10.023Z,14.99
2023-06-29T01:47:09.786Z,14.98
2023-06-29T01:49:02.909Z,14.97
2023-06-29T01:50:56.593Z,14.96
2023-06-29T01:52:49.820Z,14.95
2023-06-29T01:54:42.792Z,14.94
2023-06-29T01:56:36.321Z,14.92
2023-06-29T01:58:29.701Z,14.91
2023-06-29T02:00:22.832Z,14.89
2023-06-29T02:02:18.465Z,14.87
2023-06-29T02:04:11.907Z,14.85
2023-06-29T02:06:05.068Z,14.83
2023-06-29T02:07:58.117Z,14.81
2023-06-29T02:09:52.334Z,14.77
2023-06-29T02:11:45.338Z,14.76
2023-06-29T02:13:38.289Z,14.75
2023-06-29T02:15:31.859Z,14.73
2023-06-29T02:17:32.124Z,14.72
2023-06-29T02:19:25.113Z,14.72
2023-06-29T02:21:18.165Z,14.72
2023-06-29T02:23:11.218Z,14.71
2023-06-29T02:25:04.708Z,14.70
2023-06-29T02:26:57.831Z,14.70
2023-06-29T02:28:51.084Z,14.70
2023-06-29T02:30:44.135Z,14.71
2023-06-29T02:32:37.137Z,14.71
2023-06-29T02:34:31.771Z,14.71
2023-06-29T02:36:25.130Z,14.72
2023-06-29T02:38:18.113Z,14.71
2023-06-29T02:40:11.744Z,14.70
2023-06-29T02:42:05.121Z,14.69
2023-06-29T02:43:58.254Z,14.68
2023-06-29T02:45:51.716Z,14.67
2023-06-29T02:47:45.215Z,14.66
2023-06-29T02:49:38.842Z,14.66
2023-06-29T02:51:31.991Z,14.65
2023-06-29T02:53:29.244Z,14.66
2023-06-29T02:55:25.965Z,14.67
2023-06-29T02:57:19.129Z,14.67
2023-06-29T02:59:12.385Z,14.68
2023-06-29T03:01:05.458Z,14.69
2023-06-29T03:03:02.335Z,14.70
2023-06-29T03:04:55.649Z,14.72
2023-06-29T03:06:48.922Z,14.75
2023-06-29T03:08:41.969Z,14.79
2023-06-29T03:10:35.728Z,14.82
2023-06-29T03:12:29.372Z,14.85
2023-06-29T03:14:23.455Z,14.88
2023-06-29T03:16:16.602Z,14.91
2023-06-29T03:18:10.243Z,14.93
2023-06-29T03:20:04.141Z,14.94
2023-06-29T03:21:57.289Z,14.95
2023-06-29T03:23:50.971Z,14.96
2023-06-29T03:25:44.212Z,15.00
2023-06-29T03:27:38.592Z,15.04
2023-06-29T03:29:31.848Z,15.07
2023-06-29T03:31:24.852Z,15.11
2023-06-29T03:33:18.055Z,15.15
2023-06-29T03:35:11.039Z,15.20
2023-06-29T03:37:04.262Z,15.26
2023-06-29T03:38:57.233Z,15.33
2023-06-29T03:40:50.567Z,15.39
2023-06-29T03:42:43.713Z,15.47
2023-06-29T03:44:37.789Z,15.55
2023-06-29T03:46:30.836Z,15.62
2023-06-29T03:48:28.837Z,15.70
2023-06-29T03:50:21.957Z,15.76
2023-06-29T03:52:15.213Z,15.79
2023-06-29T03:54:08.262Z,15.85
2023-06-29T03:56:01.416Z,15.90
2023-06-29T03:57:56.005Z,15.94
2023-06-29T03:59:48.952Z,15.97
2023-06-29T04:01:41.938Z,16.02
2023-06-29T04:03:35.228Z,16.07
2023-06-29T04:05:28.612Z,16.13
2023-06-29T04:07:21.793Z,16.19
2023-06-29T04:09:14.819Z,16.26
2023-06-29T04:11:09.154Z,16.34
2023-06-29T04:13:03.376Z,16.47
2023-06-29T04:14:56.325Z,16.61
2023-06-29T04:16:49.509Z,16.73
2023-06-29T04:18:42.497Z,16.85
2023-06-29T04:20:37.312Z,16.95
2023-06-29T04:22:40.099Z,17.02
2023-06-29T04:24:33.681Z,17.08
2023-06-29T04:26:29.390Z,17.14
2023-06-29T04:28:22.451Z,17.21
2023-06-29T04:30:18.984Z,17.24
2023-06-29T04:32:12.229Z,17.26
2023-06-29T04:34:05.695Z,17.31
2023-06-29T04:35:58.633Z,17.37
2023-06-29T04:37:51.667Z,17.42
2023-06-29T04:39:44.647Z,17.48
2023-06-29T04:41:37.867Z,17.56
2023-06-29T04:43:34.222Z,17.65
2023-06-29T04:45:27.361Z,17.70
2023-06-29T04:47:20.534Z,17.76
2023-06-29T04:49:13.788Z,17.78
2023-06-29T04:51:07.089Z,17.80
2023-06-29T04:53:00.575Z,17.85
2023-06-29T04:54:53.627Z,17.90
2023-06-29T04:56:51.086Z,17.96
2023-06-29T04:58:44.072Z,18.04
2023-06-29T05:00:37.193Z,18.09
2023-06-29T05:02:30.331Z,18.15
2023-06-29T05:04:23.496Z,18.21
2023-06-29T05:06:16.953Z,18.24
2023-06-29T05:08:10.026Z,18.27
2023-06-29T05:10:03.298Z,18.31
2023-06-29T05:11:56.413Z,18.36
2023-06-29T05:13:49.464Z,18.38
2023-06-29T05:15:43.443Z,18.41
2023-06-29T05:17:37.729Z,18.45
2023-06-29T05:19:30.866Z,18.50
2023-06-29T05:21:24.016Z,18.54
2023-06-29T05:23:19.107Z,18.56
2023-06-29T05:25:12.458Z,18.55
2023-06-29T05:27:06.041Z,18.58
2023-06-29T05:29:05.114Z,18.63
2023-06-29T05:30:59.362Z,18.66
2023-06-29T05:32:53.252Z,18.68
2023-06-29T05:34:46.349Z,18.71
2023-06-29T05:36:39.389Z,18.76
2023-06-29T05:38:32.435Z,18.81
2023-06-29T05:40:25.723Z,18.89
2023-06-29T05:42:18.840Z,18.96
2023-06-29T05:44:11.900Z,19.03
2023-06-29T05:46:04.983Z,19.12
2023-06-29T05:47:58.118Z,19.18
2023-06-29T05:49:52.693Z,19.26
2023-06-29T05:51:46.037Z,19.33
2023-06-29T05:53:38.990Z,19.37
2023-06-29T05:55:32.032Z,19.43
2023-06-29T05:57:25.012Z,19.51
2023-06-29T05:59:18.071Z,19.56
2023-06-29T06:01:11.221Z,19.65
2023-06-29T06:03:05.416Z,19.72
2023-06-29T06:04:58.721Z,19.80
2023-06-29T06:06:52.242Z,19.89
2023-06-29T06:08:45.900Z,19.98
2023-06-29T06:10:39.532Z,20.09
2023-06-29T06:12:33.075Z,20.16
2023-06-29T06:14:26.645Z,20.24
2023-06-29T06:16:19.964Z,20.35
2023-06-29T06:18:13.374Z,20.44
2023-06-29T06:20:08.069Z,20.56
2023-06-29T06:22:01.642Z,20.70
2023-06-29T06:23:56.528Z,20.81
2023-06-29T06:25:50.618Z,20.90
2023-06-29T06:27:44.786Z,20.96
2023-06-29T06:29:39.125Z,21.03
2023-06-29T06:31:34.872Z,21.13
2023-06-29T06:33:31.482Z,21.19
2023-06-29T06:35:25.190Z,21.25
2023-06-29T06:37:19.574Z,21.31
2023-06-29T06:39:20.501Z,21.36
2023-06-29T06:41:14.259Z,21.46
2023-06-29T06:43:09.457Z,21.52
2023-06-29T06:45:14.170Z,21.59
2023-06-29T06:47:11.001Z,21.69
2023-06-29T06:49:06.890Z,21.80
2023-06-29T06:51:06.137Z,21.89
2023-06-29T06:53:00.260Z,22.02
2023-06-29T06:55:08.358Z,22.14
2023-06-29T06:57:20.654Z,22.29
2023-06-29T06:59:59.221Z,22.40
2023-06-29T07:01:59.169Z,22.57
2023-06-29T07:03:53.866Z,22.69
2023-06-29T07:05:48.228Z,22.79
2023-06-29T07:07:42.019Z,22.91
2023-06-29T07:09:35.849Z,23.00
2023-06-29T07:16:20.264Z,23.34
2023-06-29T07:18:14.610Z,23.44
2023-06-29T07:24:07.105Z,23.76
2023-06-29T07:26:08.401Z,23.85
2023-06-29T07:28:04.828Z,23.96
2023-06-29T07:29:58.092Z,24.08
2023-06-29T07:31:51.469Z,24.22
2023-06-29T07:33:45.119Z,24.34
2023-06-29T07:35:38.764Z,24.44
2023-06-29T07:37:32.397Z,24.54
2023-06-29T07:39:25.905Z,24.66
2023-06-29T07:41:22.431Z,24.78
2023-06-29T07:43:15.803Z,24.86
2023-06-29T07:45:17.135Z,24.96
2023-06-29T07:47:12.867Z,25.05
2023-06-29T07:49:06.298Z,25.14
2023-06-29T07:51:01.265Z,25.19
2023-06-29T07:52:55.473Z,25.28
2023-06-29T07:54:48.625Z,25.37
2023-06-29T07:58:40.450Z,25.50
2023-06-29T08:00:33.754Z,25.54
2023-06-29T08:02:26.802Z,25.60
2023-06-29T08:06:46.590Z,25.68
2023-06-29T08:08:33.189Z,25.93
2023-06-29T08:10:26.513Z,26.04
2023-06-29T08:12:19.675Z,26.16
2023-06-29T08:14:12.821Z,26.26
2023-06-29T08:16:06.598Z,26.38
2023-06-29T08:17:59.675Z,26.49
2023-06-29T08:19:52.689Z,26.59
2023-06-29T08:21:48.764Z,26.63
2023-06-29T08:23:42.171Z,26.71
2023-06-29T08:25:35.221Z,26.81
2023-06-29T08:27:28.279Z,26.93
2023-06-29T08:29:21.316Z,27.00
2023-06-29T08:31:14.568Z,27.07
2023-06-29T08:33:08.014Z,27.10
2023-06-29T08:35:01.135Z,27.15
2023-06-29T08:36:54.241Z,27.23
2023-06-29T08:38:48.215Z,27.28
2023-06-29T08:40:42.152Z,27.33
2023-06-29T08:42:38.438Z,27.39
2023-06-29T08:44:31.672Z,27.46
2023-06-29T08:46:26.631Z,27.48
2023-06-29T08:48:19.814Z,27.50
2023-06-29T08:50:13.077Z,27.56
2023-06-29T08:52:07.659Z,27.52
2023-06-29T08:54:01.530Z,27.41
2023-06-29T08:55:54.981Z,27.43
2023-06-29T08:57:48.139Z,27.56
2023-06-29T08:59:41.850Z,27.63
2023-06-29T09:01:35.249Z,27.76
2023-06-29T09:03:31.009Z,27.89
2023-06-29T09:05:24.953Z,27.98
2023-06-29T09:07:18.325Z,28.06
2023-06-29T09:09:11.358Z,28.16
2023-06-29T09:11:05.017Z,28.22
2023-06-29T09:12:58.379Z,28.24
2023-06-29T09:14:52.462Z,28.25
2023-06-29T09:16:57.724Z,28.22
2023-06-29T09:18:55.499Z,28.20
2023-06-29T09:20:50.633Z,28.25
2023-06-29T09:22:44.537Z,28.25
2023-06-29T09:24:43.698Z,28.37
2023-06-29T09:26:51.146Z,28.48
2023-06-29T09:28:50.230Z,28.44
2023-06-29T09:30:43.663Z,28.26
2023-06-29T09:32:41.333Z,28.10
2023-06-29T09:34:34.592Z,28.14
2023-06-29T09:36:28.544Z,28.16
2023-06-29T09:38:21.834Z,28.26
2023-06-29T09:40:15.162Z,28.36
2023-06-29T09:42:11.039Z,28.51
2023-06-29T09:44:08.244Z,28.64
2023-06-29T09:46:08.921Z,28.75
2023-06-29T09:50:02.604Z,28.90
2023-06-29T09:52:06.523Z,29.01
2023-06-29T09:54:23.806Z,29.12
2023-06-29T09:56:35.803Z,29.13
2023-06-29T09:58:32.352Z,29.16
2023-06-29T10:00:29.484Z,29.20
2023-06-29T10:02:22.829Z,29.25
2023-06-29T10:04:19.126Z,29.31
2023-06-29T10:06:25.499Z,29.37
2023-06-29T10:08:36.277Z,29.48
2023-06-29T10:10:39.020Z,29.57
2023-06-29T10:12:33.744Z,29.58
2023-06-29T10:14:27.477Z,29.62
2023-06-29T10:16:22.895Z,29.61
2023-06-29T10:18:33.043Z,29.56
2023-06-29T10:20:28.174Z,29.26
2023-06-29T10:22:22.454Z,29.18
2023-06-29T10:24:20.073Z,29.16
2023-06-29T10:26:13.850Z,29.21
2023-06-29T10:28:08.931Z,29.11
2023-06-29T10:30:06.423Z,29.08
2023-06-29T10:32:00.624Z,29.12
2023-06-29T10:34:59.193Z,29.21
2023-06-29T10:37:06.687Z,29.35
2023-06-29T10:39:55.268Z,29.37
2023-06-29T10:42:28.264Z,29.16
2023-06-29T10:44:21.702Z,29.19
2023-06-29T10:46:17.636Z,29.20
2023-06-29T10:48:25.463Z,29.20
2023-06-29T10:50:29.987Z,29.26
2023-06-29T10:52:25.948Z,29.14
2023-06-29T10:54:22.507Z,28.97
2023-06-29T10:56:30.781Z,28.86
2023-06-29T10:58:40.201Z,28.85
2023-06-29T11:00:33.429Z,28.88
2023-06-29T11:02:26.640Z,28.91
2023-06-29T11:04:20.612Z,28.96
2023-06-29T11:06:24.801Z,28.97
2023-06-29T11:08:23.128Z,29.02
2023-06-29T11:10:16.238Z,29.04
2023-06-29T11:12:09.447Z,29.05
2023-06-29T11:14:03.929Z,28.94
2023-06-29T11:15:57.996Z,28.77
2023-06-29T11:17:52.900Z,28.56
2023-06-29T11:19:47.100Z,28.38
2023-06-29T11:21:42.198Z,28.29
2023-06-29T11:23:35.329Z,28.31
2023-06-29T11:25:31.956Z,28.31
2023-06-29T11:27:25.131Z,28.26
2023-06-29T11:29:19.190Z,28.10
2023-06-29T11:31:12.827Z,27.99
2023-06-29T11:33:33.615Z,27.98
2023-06-29T11:35:30.732Z,28.03
2023-06-29T11:37:24.845Z,28.01
2023-06-29T11:39:19.155Z,27.93
2023-06-29T11:41:12.398Z,27.83
2023-06-29T11:43:05.762Z,27.83
2023-06-29T11:45:10.928Z,27.83
2023-06-29T11:47:18.512Z,27.77
2023-06-29T11:49:23.047Z,27.75
2023-06-29T11:51:17.961Z,27.78
2023-06-29T11:53:13.566Z,27.78
2023-06-29T11:55:09.435Z,27.87
2023-06-29T11:57:04.132Z,28.00
2023-06-29T11:59:17.321Z,28.08
2023-06-29T12:01:17.360Z,28.11
2023-06-29T12:03:12.231Z,28.14
2023-06-29T12:05:06.786Z,28.11
2023-06-29T12:07:00.363Z,27.97
2023-06-29T12:08:53.772Z,27.92
2023-06-29T12:10:47.233Z,27.92
2023-06-29T12:12:43.840Z,27.89
2023-06-29T12:14:37.227Z,27.84
2023-06-29T12:18:30.141Z,27.95
2023-06-29T12:20:25.816Z,27.79
2023-06-29T12:22:22.901Z,27.61
2023-06-29T12:24:19.823Z,27.52
2023-06-29T12:26:16.492Z,27.39
2023-06-29T12:28:10.088Z,27.33
2023-06-29T12:30:04.042Z,27.36
2023-06-29T12:32:02.033Z,27.40
2023-06-29T12:33:55.399Z,27.40
2023-06-29T12:35:49.171Z,27.31
2023-06-29T12:37:43.107Z,27.26
2023-06-29T12:39:36.389Z,27.18
2023-06-29T12:41:29.758Z,27.09
2023-06-29T12:43:22.977Z,26.99
2023-06-29T12:45:16.037Z,27.00
2023-06-29T12:47:09.533Z,27.08
2023-06-29T12:49:02.945Z,27.17
2023-06-29T12:51:01.251Z,27.25
2023-06-29T12:52:55.023Z,27.33
2023-06-29T12:54:48.443Z,27.33
2023-06-29T12:56:41.403Z,27.30
2023-06-29T12:58:35.583Z,27.30
2023-06-29T13:00:28.727Z,27.32
2023-06-29T13:02:22.696Z,27.29
2023-06-29T13:04:21.894Z,27.20
2023-06-29T13:06:18.340Z,27.11
2023-06-29T13:08:25.876Z,27.09
2023-06-29T13:10:19.675Z,27.08
2023-06-29T13:12:15.984Z,27.06
2023-06-29T13:14:09.267Z,27.05
2023-06-29T13:16:02.414Z,27.04
2023-06-29T13:17:56.201Z,26.97
2023-06-29T13:19:49.742Z,26.90
2023-06-29T13:21:42.850Z,26.80
2023-06-29T13:23:36.112Z,26.69
2023-06-29T13:25:29.305Z,26.64
2023-06-29T13:27:23.688Z,26.60
2023-06-29T13:29:17.248Z,26.59
2023-06-29T13:31:10.234Z,26.56
2023-06-29T13:33:03.971Z,26.58
2023-06-29T13:34:57.645Z,26.58
2023-06-29T13:36:50.680Z,26.62
2023-06-29T13:38:43.794Z,26.70
2023-06-29T13:40:36.883Z,26.75
2023-06-29T13:42:29.833Z,26.81
2023-06-29T13:44:23.661Z,26.87
2023-06-29T13:46:16.657Z,26.90
2023-06-29T13:48:10.021Z,26.88
2023-06-29T13:50:03.384Z,26.78
2023-06-29T13:51:56.419Z,26.68
2023-06-29T13:53:50.807Z,26.59
2023-06-29T13:55:47.554Z,26.51
2023-06-29T13:57:40.726Z,26.49
2023-06-29T13:59:33.963Z,26.52
2023-06-29T14:01:27.017Z,26.51
2023-06-29T14:03:20.143Z,26.54
2023-06-29T14:05:13.508Z,26.56
2023-06-29T14:07:08.136Z,26.59
2023-06-29T14:09:01.978Z,26.61
2023-06-29T14:10:56.039Z,26.64
2023-06-29T14:12:49.086Z,26.73
2023-06-29T14:14:45.823Z,26.78
2023-06-29T14:16:39.017Z,26.79
2023-06-29T14:18:32.258Z,26.86
2023-06-29T14:20:25.637Z,26.89
2023-06-29T14:22:19.379Z,26.89
2023-06-29T14:24:12.617Z,26.89
2023-06-29T14:26:05.604Z,26.93
2023-06-29T14:27:58.716Z,26.98
2023-06-29T14:29:51.769Z,27.01
2023-06-29T14:31:45.690Z,26.99
2023-06-29T14:33:39.172Z,26.97
2023-06-29T14:35:35.772Z,26.90
2023-06-29T14:37:30.045Z,26.79
2023-06-29T14:39:23.283Z,26.74
2023-06-29T14:41:16.418Z,26.70
2023-06-29T14:43:09.474Z,26.71
2023-06-29T14:45:02.519Z,26.72
2023-06-29T14:46:56.706Z,26.76
2023-06-29T14:48:49.654Z,26.78
2023-06-29T14:50:43.928Z,26.79
2023-06-29T14:52:39.672Z,26.78
2023-06-29T14:54:32.687Z,26.72
2023-06-29T14:56:25.881Z,26.67
2023-06-29T14:58:19.539Z,26.61
2023-06-29T15:00:13.440Z,26.54
2023-06-29T15:02:06.555Z,26.51
2023-06-29T15:03:59.757Z,26.50
2023-06-29T15:05:53.055Z,26.52
2023-06-29T15:07:46.161Z,26.54
2023-06-29T15:09:39.348Z,26.58
2023-06-29T15:11:32.412Z,26.61
2023-06-29T15:13:25.446Z,26.61
2023-06-29T15:15:19.153Z,26.62
2023-06-29T15:17:12.159Z,26.62
2023-06-29T15:19:05.226Z,26.55
2023-06-29T15:20:58.260Z,26.47
2023-06-29T15:22:51.317Z,26.42
2023-06-29T15:24:44.373Z,26.33
2023-06-29T15:26:37.425Z,26.22
2023-06-29T15:28:30.467Z,26.15
2023-06-29T15:30:23.451Z,26.07
2023-06-29T15:32:16.577Z,26.00
2023-06-29T15:34:09.622Z,25.98
2023-06-29T15:36:02.875Z,25.96
2023-06-29T15:37:55.924Z,25.94
2023-06-29T15:39:49.486Z,25.92
2023-06-29T15:41:50.960Z,25.94
2023-06-29T15:43:45.930Z,25.93
2023-06-29T15:45:39.014Z,25.93
2023-06-29T15:47:33.620Z,25.91
2023-06-29T15:49:27.746Z,25.87
2023-06-29T15:51:21.759Z,25.81
2023-06-29T15:53:15.044Z,25.77
2023-06-29T15:55:08.643Z,25.74
2023-06-29T15:57:01.907Z,25.71
2023-06-29T15:58:55.898Z,25.67
2023-06-29T16:00:48.918Z,25.63
2023-06-29T16:02:42.031Z,25.61
2023-06-29T16:04:36.122Z,25.58
2023-06-29T16:06:31.142Z,25.59
2023-06-29T16:08:24.327Z,25.61
2023-06-29T16:10:17.342Z,25.62
2023-06-29T16:12:10.908Z,25.62
2023-06-29T16:14:03.961Z,25.60
2023-06-29T16:15:56.935Z,25.57
2023-06-29T16:17:50.004Z,25.53
2023-06-29T16:19:43.310Z,25.49
2023-06-29T16:21:36.364Z,25.47
2023-06-29T16:23:29.928Z,25.46
2023-06-29T16:25:25.333Z,25.46
2023-06-29T16:27:18.385Z,25.46
2023-06-29T16:29:11.435Z,25.45
2023-06-29T16:31:04.521Z,25.45
2023-06-29T16:32:57.787Z,25.46
2023-06-29T16:34:50.894Z,25.47
2023-06-29T16:36:43.967Z,25.49
2023-06-29T16:38:37.001Z,25.50
2023-06-29T16:40:29.990Z,25.51
2023-06-29T16:42:22.991Z,25.52
2023-06-29T16:44:16.048Z,25.51
2023-06-29T16:46:09.328Z,25.49
2023-06-29T16:48:02.404Z,25.44
2023-06-29T16:49:56.454Z,25.41
2023-06-29T16:51:49.791Z,25.37
2023-06-29T16:53:42.762Z,25.34
2023-06-29T16:55:36.095Z,25.30
2023-06-29T16:57:29.173Z,25.25
2023-06-29T16:59:22.315Z,25.23
2023-06-29T17:01:15.497Z,25.19
2023-06-29T17:03:08.754Z,25.15
2023-06-29T17:05:01.955Z,25.12
2023-06-29T17:06:55.034Z,25.09
2023-06-29T17:08:48.369Z,25.07
2023-06-29T17:10:41.409Z,25.04
2023-06-29T17:12:34.494Z,25.01
2023-06-29T17:14:27.734Z,25.01
2023-06-29T17:16:21.324Z,25.01
2023-06-29T17:18:15.519Z,25.01
2023-06-29T17:20:09.262Z,25.02
2023-06-29T17:22:02.815Z,25.02
2023-06-29T17:23:56.573Z,25.02
2023-06-29T17:25:51.715Z,25.04
2023-06-29T17:27:44.811Z,25.04
2023-06-29T17:29:39.845Z,25.04
2023-06-29T17:37:19.271Z,25.06
2023-06-29T17:39:12.225Z,25.05
2023-06-29T17:41:05.588Z,25.05
2023-06-29T17:42:58.968Z,25.04
2023-06-29T17:44:51.885Z,25.02
2023-06-29T17:46:45.663Z,25.01
2023-06-29T17:48:39.148Z,24.98
2023-06-29T17:50:32.189Z,24.94
2023-06-29T17:52:25.222Z,24.89
2023-06-29T17:54:18.312Z,24.85
2023-06-29T17:56:11.830Z,24.81
2023-06-29T17:58:04.878Z,24.77
2023-06-29T17:59:58.150Z,24.73
2023-06-29T18:01:51.219Z,24.69
2023-06-29T18:03:44.763Z,24.66
2023-06-29T18:05:37.902Z,24.63
2023-06-29T18:07:30.906Z,24.59
2023-06-29T18:09:23.956Z,24.56
2023-06-29T18:11:17.999Z,24.52
2023-06-29T18:13:11.225Z,24.47
2023-06-29T18:15:08.179Z,24.42
2023-06-29T18:17:01.249Z,24.39
2023-06-29T18:18:54.373Z,24.36
2023-06-29T18:20:48.045Z,24.32
2023-06-29T18:22:41.091Z,24.29
2023-06-29T18:24:34.104Z,24.27
2023-06-29T18:26:27.014Z,24.25
2023-06-29T18:28:20.239Z,24.22
2023-06-29T18:30:13.911Z,24.20
2023-06-29T18:32:07.588Z,24.17
2023-06-29T18:34:00.623Z,24.14
2023-06-29T18:35:53.681Z,24.12
2023-06-29T18:37:46.929Z,24.09
2023-06-29T18:39:39.887Z,24.06
2023-06-29T18:41:37.893Z,24.04
2023-06-29T18:43:30.791Z,24.01
2023-06-29T18:45:26.259Z,23.94
2023-06-29T18:47:19.701Z,23.91
2023-06-29T18:49:13.881Z,23.86
2023-06-29T18:51:06.784Z,23.77
2023-06-29T18:53:01.698Z,23.71
2023-06-29T18:54:56.980Z,23.65
2023-06-29T18:56:49.937Z,23.56
2023-06-29T18:58:42.880Z,23.49
2023-06-29T19:00:37.170Z,23.37
2023-06-29T19:02:30.225Z,23.26
2023-06-29T19:04:23.672Z,23.17
2023-06-29T19:06:16.724Z,23.11
2023-06-29T19:08:10.306Z,23.07
2023-06-29T19:10:04.366Z,23.02
2023-06-29T19:11:57.816Z,22.98
2023-06-29T19:13:50.970Z,22.95
2023-06-29T19:15:44.520Z,22.92
2023-06-29T19:17:38.013Z,22.88
2023-06-29T19:19:31.454Z,22.81
2023-06-29T19:21:32.311Z,22.74
2023-06-29T19:23:32.406Z,22.66
2023-06-29T19:25:25.368Z,22.60
2023-06-29T19:27:18.411Z,22.56
2023-06-29T19:29:12.488Z,22.52
2023-06-29T19:31:05.740Z,22.47
2023-06-29T19:33:02.475Z,22.42
2023-06-29T19:34:55.826Z,22.37
2023-06-29T19:36:50.093Z,22.32
2023-06-29T19:38:43.245Z,22.28
2023-06-29T19:40:36.339Z,22.24
2023-06-29T19:42:30.526Z,22.20
2023-06-29T19:44:23.568Z,22.16
2023-06-29T19:46:16.609Z,22.10
2023-06-29T19:48:09.884Z,22.04
2023-06-29T19:50:05.101Z,21.98
2023-06-29T19:51:59.017Z,21.92
2023-06-29T19:53:52.680Z,21.81
2023-06-29T19:55:45.920Z,21.69
2023-06-29T19:57:39.294Z,21.58
2023-06-29T19:59:32.353Z,21.53
2023-06-29T20:01:25.396Z,21.47
2023-06-29T20:03:19.553Z,21.43
2023-06-29T20:05:12.977Z,21.41
2023-06-29T20:07:06.412Z,21.33
2023-06-29T20:08:59.376Z,21.26
2023-06-29T20:10:52.394Z,21.17
2023-06-29T20:12:46.371Z,21.13
2023-06-29T20:14:39.922Z,21.10
2023-06-29T20:16:33.013Z,21.07
2023-06-29T20:18:26.644Z,21.02
2023-06-29T20:20:19.685Z,20.95
2023-06-29T20:22:13.221Z,20.86
2023-06-29T20:24:06.756Z,20.77
2023-06-29T20:25:59.864Z,20.70
2023-06-29T20:27:52.919Z,20.62
2023-06-29T20:29:47.088Z,20.53
2023-06-29T20:31:40.192Z,20.44
2023-06-29T20:33:33.291Z,20.35
2023-06-29T20:35:26.347Z,20.31
2023-06-29T20:37:20.348Z,20.27
2023-06-29T20:39:13.470Z,20.19
2023-06-29T20:41:06.517Z,20.14
2023-06-29T20:43:00.183Z,20.07
2023-06-29T20:44:57.457Z,19.97
2023-06-29T20:46:50.829Z,19.90
2023-06-29T20:48:45.662Z,19.85
2023-06-29T20:50:42.523Z,19.83
2023-06-29T20:52:35.573Z,19.82
2023-06-29T20:54:29.445Z,19.82
2023-06-29T20:56:22.699Z,19.84
2023-06-29T20:58:15.950Z,19.84
2023-06-29T21:00:13.156Z,19.85
2023-06-29T21:02:07.815Z,19.84
2023-06-29T21:04:01.377Z,19.83
2023-06-29T21:05:54.773Z,19.82
2023-06-29T21:07:48.217Z,19.81
2023-06-29T21:09:41.563Z,19.81
2023-06-29T21:11:35.531Z,19.78
2023-06-29T21:13:30.292Z,19.75
2023-06-29T21:15:23.450Z,19.74
2023-06-29T21:17:16.827Z,19.74
2023-06-29T21:19:10.157Z,19.73
2023-06-29T21:21:03.833Z,19.73
2023-06-29T21:22:56.984Z,19.71
2023-06-29T21:24:50.998Z,19.70
2023-06-29T21:26:44.570Z,19.68
2023-06-29T21:28:42.027Z,19.66
2023-06-29T21:30:37.554Z,19.57
2023-06-29T21:32:31.620Z,19.46
2023-06-29T21:34:24.925Z,19.36
2023-06-29T21:36:18.366Z,19.29
2023-06-29T21:38:11.840Z,19.25
2023-06-29T21:40:06.718Z,19.24
2023-06-29T21:42:01.021Z,19.23
2023-06-29T21:43:54.256Z,19.21
2023-06-29T21:45:47.487Z,19.19
2023-06-29T21:47:40.705Z,19.17
2023-06-29T21:49:34.020Z,19.10
2023-06-29T21:51:27.758Z,19.05
2023-06-29T21:53:21.557Z,19.03
2023-06-29T21:55:15.735Z,19.02
2023-06-29T21:57:08.993Z,19.00
2023-06-29T21:59:02.244Z,18.98
2023-06-29T22:00:55.623Z,18.96
2023-06-29T22:02:48.930Z,18.95
2023-06-29T22:04:42.329Z,18.93
2023-06-29T22:06:35.818Z,18.91
2023-06-29T22:08:29.033Z,18.90
2023-06-29T22:10:22.249Z,18.88
2023-06-29T22:12:15.754Z,18.85
2023-06-29T22:14:09.125Z,18.82
2023-06-29T22:16:02.478Z,18.80
2023-06-29T22:17:59.141Z,18.78
2023-06-29T22:20:12.524Z,18.75
2023-06-29T22:22:08.903Z,18.71
2023-06-29T22:24:01.996Z,18.69
2023-06-29T22:25:55.210Z,18.68
2023-06-29T22:27:49.161Z,18.67
2023-06-29T22:29:42.360Z,18.63
2023-06-29T22:31:35.453Z,18.60
2023-06-29T22:33:28.503Z,18.58
2023-06-29T22:35:21.631Z,18.55
2023-06-29T22:37:14.770Z,18.51
2023-06-29T22:39:07.867Z,18.46
2023-06-29T22:41:01.428Z,18.38
2023-06-29T22:42:54.543Z,18.29
2023-06-29T22:44:47.631Z,18.21
2023-06-29T22:46:40.835Z,18.17
2023-06-29T22:48:34.048Z,18.13
2023-06-29T22:50:27.394Z,18.11
2023-06-29T22:52:21.802Z,18.10
2023-06-29T22:54:15.138Z,18.09
2023-06-29T22:56:08.341Z,18.05
2023-06-29T22:58:01.553Z,17.98
2023-06-29T22:59:57.056Z,17.95
2023-06-29T23:01:51.022Z,17.94
2023-06-29T23:03:44.205Z,17.93
2023-06-29T23:05:37.430Z,17.93
2023-06-29T23:07:30.601Z,17.92
2023-06-29T23:09:24.831Z,17.93
2023-06-29T23:11:18.014Z,17.92
2023-06-29T23:13:15.812Z,17.91
2023-06-29T23:15:09.709Z,17.90
2023-06-29T23:17:04.084Z,17.86
2023-06-29T23:18:57.263Z,17.84
2023-06-29T23:20:50.335Z,17.84
2023-06-29T23:22:47.420Z,17.84
2023-06-29T23:24:42.082Z,17.85
2023-06-29T23:26:36.550Z,17.85
2023-06-29T23:28:29.700Z,17.86
2023-06-29T23:30:23.163Z,17.87
2023-06-29T23:32:16.215Z,17.84
2023-06-29T23:34:09.372Z,17.83
2023-06-29T23:36:02.419Z,17.84
2023-06-29T23:37:55.568Z,17.84
2023-06-29T23:39:49.747Z,17.84
2023-06-29T23:41:43.102Z,17.85
2023-06-29T23:43:36.138Z,17.81
2023-06-29T23:45:29.117Z,17.79
2023-06-29T23:47:22.183Z,17.78
2023-06-29T23:49:18.272Z,17.78
2023-06-29T23:51:11.831Z,17.76
2023-06-29T23:53:05.181Z,17.73
2023-06-29T23:54:58.161Z,17.68
2023-06-29T23:56:52.777Z,17.61
2023-06-29T23:58:45.876Z,17.59
